sensor_id;sensor_type;location;lat;lon;timestamp;P1;durP1;ratioP1;P2;durP2;ratioP2
10641;SDS011;5369;49.586;8.646;2024-01-11T00:00:48;41.17;;;21.50;;
10641;SDS011;5369;49.586;8.646;2024-01-11T00:03:14;35.10;;;19.67;;
10641;SDS011;5369;49.586;8.646;2024-01-11T00:05:40;38.30;;;21.90;;
10641;SDS011;5369;49.586;8.646;2024-01-11T00:08:07;33.97;;;19.37;;
10641;SDS011;5369;49.586;8.646;2024-01-11T00:10:33;39.37;;;21.27;;
10641;SDS011;5369;49.586;8.646;2024-01-11T00:12:59;34.23;;;19.30;;
10641;SDS011;5369;49.586;8.646;2024-01-11T00:15:25;35.27;;;20.07;;
10641;SDS011;5369;49.586;8.646;2024-01-11T00:17:51;41.50;;;24.13;;
10641;SDS011;5369;49.586;8.646;2024-01-11T00:20:18;36.53;;;19.97;;
10641;SDS011;5369;49.586;8.646;2024-01-11T00:22:44;43.80;;;23.13;;
10641;SDS011;5369;49.586;8.646;2024-01-11T00:25:10;38.33;;;21.77;;
10641;SDS011;5369;49.586;8.646;2024-01-11T00:27:36;36.67;;;19.80;;
10641;SDS011;5369;49.586;8.646;2024-01-11T00:30:03;38.83;;;20.43;;
10641;SDS011;5369;49.586;8.646;2024-01-11T00:32:29;41.07;;;19.77;;
10641;SDS011;5369;49.586;8.646;2024-01-11T00:34:56;38.37;;;19.83;;
10641;SDS011;5369;49.586;8.646;2024-01-11T00:37:22;36.73;;;19.83;;
10641;SDS011;5369;49.586;8.646;2024-01-11T00:39:48;35.90;;;20.13;;
10641;SDS011;5369;49.586;8.646;2024-01-11T00:42:14;38.37;;;19.67;;
10641;SDS011;5369;49.586;8.646;2024-01-11T00:44:40;34.17;;;17.97;;
10641;SDS011;5369;49.586;8.646;2024-01-11T00:47:06;36.53;;;19.67;;
10641;SDS011;5369;49.586;8.646;2024-01-11T00:49:32;37.53;;;19.40;;
10641;SDS011;5369;49.586;8.646;2024-01-11T00:51:59;39.03;;;21.13;;
10641;SDS011;5369;49.586;8.646;2024-01-11T00:54:25;36.60;;;21.07;;
10641;SDS011;5369;49.586;8.646;2024-01-11T00:56:51;34.80;;;18.33;;
10641;SDS011;5369;49.586;8.646;2024-01-11T00:59:17;38.37;;;20.60;;
10641;SDS011;5369;49.586;8.646;2024-01-11T01:01:47;31.27;;;17.93;;
10641;SDS011;5369;49.586;8.646;2024-01-11T01:04:13;32.80;;;17.63;;
10641;SDS011;5369;49.586;8.646;2024-01-11T01:06:41;39.87;;;21.70;;
10641;SDS011;5369;49.586;8.646;2024-01-11T01:09:07;35.57;;;19.57;;
10641;SDS011;5369;49.586;8.646;2024-01-11T01:11:33;38.87;;;20.07;;
10641;SDS011;5369;49.586;8.646;2024-01-11T01:13:59;34.97;;;18.87;;
10641;SDS011;5369;49.586;8.646;2024-01-11T01:16:25;37.40;;;19.53;;
10641;SDS011;5369;49.586;8.646;2024-01-11T01:18:52;40.07;;;22.23;;
10641;SDS011;5369;49.586;8.646;2024-01-11T01:21:18;40.23;;;20.53;;
10641;SDS011;5369;49.586;8.646;2024-01-11T01:23:44;34.13;;;19.53;;
10641;SDS011;5369;49.586;8.646;2024-01-11T01:26:10;36.90;;;19.17;;
10641;SDS011;5369;49.586;8.646;2024-01-11T01:28:36;36.80;;;21.20;;
10641;SDS011;5369;49.586;8.646;2024-01-11T01:31:02;38.67;;;20.20;;
10641;SDS011;5369;49.586;8.646;2024-01-11T01:33:28;36.10;;;19.90;;
10641;SDS011;5369;49.586;8.646;2024-01-11T01:35:55;42.47;;;21.03;;
10641;SDS011;5369;49.586;8.646;2024-01-11T01:38:21;38.93;;;20.53;;
10641;SDS011;5369;49.586;8.646;2024-01-11T01:40:47;34.77;;;18.27;;
10641;SDS011;5369;49.586;8.646;2024-01-11T01:43:13;38.47;;;20.30;;
10641;SDS011;5369;49.586;8.646;2024-01-11T01:45:39;34.03;;;20.03;;
10641;SDS011;5369;49.586;8.646;2024-01-11T01:48:06;44.07;;;21.47;;
10641;SDS011;5369;49.586;8.646;2024-01-11T01:50:32;44.10;;;23.43;;
10641;SDS011;5369;49.586;8.646;2024-01-11T01:52:59;44.00;;;23.77;;
10641;SDS011;5369;49.586;8.646;2024-01-11T01:55:26;40.17;;;21.50;;
10641;SDS011;5369;49.586;8.646;2024-01-11T01:57:53;36.00;;;20.50;;
10641;SDS011;5369;49.586;8.646;2024-01-11T02:00:20;51.03;;;25.30;;
10641;SDS011;5369;49.586;8.646;2024-01-11T02:02:47;46.67;;;24.40;;
10641;SDS011;5369;49.586;8.646;2024-01-11T02:05:16;44.40;;;22.77;;
10641;SDS011;5369;49.586;8.646;2024-01-11T02:07:42;43.53;;;22.07;;
10641;SDS011;5369;49.586;8.646;2024-01-11T02:10:09;42.97;;;20.93;;
10641;SDS011;5369;49.586;8.646;2024-01-11T02:12:35;41.80;;;22.70;;
10641;SDS011;5369;49.586;8.646;2024-01-11T02:15:02;44.80;;;22.83;;
10641;SDS011;5369;49.586;8.646;2024-01-11T02:17:30;40.40;;;21.90;;
10641;SDS011;5369;49.586;8.646;2024-01-11T02:19:56;40.50;;;20.80;;
10641;SDS011;5369;49.586;8.646;2024-01-11T02:22:28;36.43;;;19.57;;
10641;SDS011;5369;49.586;8.646;2024-01-11T02:24:55;42.53;;;22.13;;
10641;SDS011;5369;49.586;8.646;2024-01-11T02:27:22;39.80;;;20.73;;
10641;SDS011;5369;49.586;8.646;2024-01-11T02:29:49;39.33;;;21.03;;
10641;SDS011;5369;49.586;8.646;2024-01-11T02:32:15;36.87;;;20.33;;
10641;SDS011;5369;49.586;8.646;2024-01-11T02:34:41;40.50;;;21.80;;
10641;SDS011;5369;49.586;8.646;2024-01-11T02:37:07;35.27;;;18.63;;
10641;SDS011;5369;49.586;8.646;2024-01-11T02:39:33;37.63;;;19.87;;
10641;SDS011;5369;49.586;8.646;2024-01-11T02:42:00;32.27;;;16.90;;
10641;SDS011;5369;49.586;8.646;2024-01-11T02:44:27;33.93;;;18.30;;
10641;SDS011;5369;49.586;8.646;2024-01-11T02:46:53;29.13;;;17.50;;
10641;SDS011;5369;49.586;8.646;2024-01-11T02:49:19;36.00;;;18.93;;
10641;SDS011;5369;49.586;8.646;2024-01-11T02:51:45;33.27;;;18.00;;
10641;SDS011;5369;49.586;8.646;2024-01-11T02:54:11;36.33;;;19.10;;
10641;SDS011;5369;49.586;8.646;2024-01-11T02:56:38;33.83;;;19.60;;
10641;SDS011;5369;49.586;8.646;2024-01-11T02:59:04;35.10;;;18.40;;
10641;SDS011;5369;49.586;8.646;2024-01-11T03:01:30;29.40;;;16.57;;
10641;SDS011;5369;49.586;8.646;2024-01-11T03:03:57;30.57;;;17.13;;
10641;SDS011;5369;49.586;8.646;2024-01-11T03:06:24;33.63;;;17.90;;
10641;SDS011;5369;49.586;8.646;2024-01-11T03:08:50;31.67;;;17.90;;
10641;SDS011;5369;49.586;8.646;2024-01-11T03:11:16;32.87;;;17.07;;
10641;SDS011;5369;49.586;8.646;2024-01-11T03:13:42;37.90;;;20.00;;
10641;SDS011;5369;49.586;8.646;2024-01-11T03:16:08;36.03;;;19.03;;
10641;SDS011;5369;49.586;8.646;2024-01-11T03:18:35;35.60;;;18.83;;
10641;SDS011;5369;49.586;8.646;2024-01-11T03:21:01;34.17;;;18.53;;
10641;SDS011;5369;49.586;8.646;2024-01-11T03:23:27;30.30;;;17.20;;
10641;SDS011;5369;49.586;8.646;2024-01-11T03:25:53;36.57;;;18.13;;
10641;SDS011;5369;49.586;8.646;2024-01-11T03:28:19;32.40;;;18.03;;
10641;SDS011;5369;49.586;8.646;2024-01-11T03:30:45;32.37;;;17.87;;
10641;SDS011;5369;49.586;8.646;2024-01-11T03:33:11;33.47;;;17.77;;
10641;SDS011;5369;49.586;8.646;2024-01-11T03:35:37;37.73;;;19.97;;
10641;SDS011;5369;49.586;8.646;2024-01-11T03:38:05;35.33;;;19.03;;
10641;SDS011;5369;49.586;8.646;2024-01-11T03:40:31;28.93;;;15.37;;
10641;SDS011;5369;49.586;8.646;2024-01-11T03:42:58;30.00;;;16.73;;
10641;SDS011;5369;49.586;8.646;2024-01-11T03:45:24;33.27;;;17.23;;
10641;SDS011;5369;49.586;8.646;2024-01-11T03:47:50;36.60;;;20.07;;
10641;SDS011;5369;49.586;8.646;2024-01-11T03:50:16;31.87;;;17.30;;
10641;SDS011;5369;49.586;8.646;2024-01-11T03:52:44;28.87;;;16.00;;
10641;SDS011;5369;49.586;8.646;2024-01-11T03:55:10;34.53;;;17.87;;
10641;SDS011;5369;49.586;8.646;2024-01-11T03:57:36;34.77;;;19.00;;
10641;SDS011;5369;49.586;8.646;2024-01-11T04:00:02;33.53;;;16.90;;
10641;SDS011;5369;49.586;8.646;2024-01-11T04:02:30;30.27;;;16.63;;
10641;SDS011;5369;49.586;8.646;2024-01-11T04:04:56;28.97;;;16.60;;
10641;SDS011;5369;49.586;8.646;2024-01-11T04:07:22;33.33;;;17.70;;
10641;SDS011;5369;49.586;8.646;2024-01-11T04:09:49;32.63;;;17.40;;
10641;SDS011;5369;49.586;8.646;2024-01-11T04:12:15;36.53;;;21.15;;
10641;SDS011;5369;49.586;8.646;2024-01-11T04:14:41;37.77;;;20.03;;
10641;SDS011;5369;49.586;8.646;2024-01-11T04:17:07;36.90;;;18.43;;
10641;SDS011;5369;49.586;8.646;2024-01-11T04:19:34;38.07;;;19.10;;
10641;SDS011;5369;49.586;8.646;2024-01-11T04:22:00;37.43;;;21.27;;
10641;SDS011;5369;49.586;8.646;2024-01-11T04:24:26;38.90;;;19.80;;
10641;SDS011;5369;49.586;8.646;2024-01-11T04:26:52;33.83;;;18.70;;
10641;SDS011;5369;49.586;8.646;2024-01-11T04:29:18;32.90;;;18.03;;
10641;SDS011;5369;49.586;8.646;2024-01-11T04:31:44;32.87;;;17.77;;
10641;SDS011;5369;49.586;8.646;2024-01-11T04:34:10;36.37;;;19.20;;
10641;SDS011;5369;49.586;8.646;2024-01-11T04:36:37;33.33;;;17.10;;
10641;SDS011;5369;49.586;8.646;2024-01-11T04:39:06;35.33;;;18.80;;
10641;SDS011;5369;49.586;8.646;2024-01-11T04:41:34;35.93;;;19.57;;
10641;SDS011;5369;49.586;8.646;2024-01-11T04:44:02;33.70;;;17.23;;
10641;SDS011;5369;49.586;8.646;2024-01-11T04:46:28;35.97;;;19.33;;
10641;SDS011;5369;49.586;8.646;2024-01-11T04:48:54;37.30;;;19.43;;
10641;SDS011;5369;49.586;8.646;2024-01-11T04:51:20;40.60;;;22.40;;
10641;SDS011;5369;49.586;8.646;2024-01-11T04:53:47;35.83;;;19.53;;
10641;SDS011;5369;49.586;8.646;2024-01-11T04:56:14;39.33;;;21.37;;
10641;SDS011;5369;49.586;8.646;2024-01-11T04:58:40;35.10;;;18.83;;
10641;SDS011;5369;49.586;8.646;2024-01-11T05:01:07;38.93;;;20.27;;
10641;SDS011;5369;49.586;8.646;2024-01-11T05:03:33;36.73;;;18.70;;
10641;SDS011;5369;49.586;8.646;2024-01-11T05:05:59;38.03;;;19.07;;
10641;SDS011;5369;49.586;8.646;2024-01-11T05:08:25;33.93;;;18.07;;
10641;SDS011;5369;49.586;8.646;2024-01-11T05:10:52;34.87;;;18.43;;
10641;SDS011;5369;49.586;8.646;2024-01-11T05:13:19;34.53;;;20.70;;
10641;SDS011;5369;49.586;8.646;2024-01-11T05:15:45;36.80;;;20.83;;
10641;SDS011;5369;49.586;8.646;2024-01-11T05:18:11;33.00;;;19.07;;
10641;SDS011;5369;49.586;8.646;2024-01-11T05:20:38;35.60;;;18.67;;
10641;SDS011;5369;49.586;8.646;2024-01-11T05:23:04;33.83;;;18.00;;
10641;SDS011;5369;49.586;8.646;2024-01-11T05:25:30;38.63;;;19.77;;
10641;SDS011;5369;49.586;8.646;2024-01-11T05:28:00;36.10;;;18.83;;
10641;SDS011;5369;49.586;8.646;2024-01-11T05:30:26;42.83;;;22.43;;
10641;SDS011;5369;49.586;8.646;2024-01-11T05:32:53;41.77;;;23.23;;
10641;SDS011;5369;49.586;8.646;2024-01-11T05:35:19;40.93;;;22.30;;
10641;SDS011;5369;49.586;8.646;2024-01-11T05:37:45;39.07;;;20.23;;
10641;SDS011;5369;49.586;8.646;2024-01-11T05:40:11;39.20;;;20.93;;
10641;SDS011;5369;49.586;8.646;2024-01-11T05:42:39;41.13;;;19.97;;
10641;SDS011;5369;49.586;8.646;2024-01-11T05:45:05;39.17;;;20.47;;
10641;SDS011;5369;49.586;8.646;2024-01-11T05:47:31;39.43;;;20.90;;
10641;SDS011;5369;49.586;8.646;2024-01-11T05:49:57;36.37;;;19.77;;
10641;SDS011;5369;49.586;8.646;2024-01-11T05:52:24;45.37;;;21.53;;
10641;SDS011;5369;49.586;8.646;2024-01-11T05:54:50;40.80;;;21.70;;
10641;SDS011;5369;49.586;8.646;2024-01-11T05:57:16;50.43;;;26.27;;
10641;SDS011;5369;49.586;8.646;2024-01-11T05:59:45;44.80;;;22.87;;
10641;SDS011;5369;49.586;8.646;2024-01-11T06:02:12;40.63;;;23.52;;
10641;SDS011;5369;49.586;8.646;2024-01-11T06:04:39;43.67;;;23.03;;
10641;SDS011;5369;49.586;8.646;2024-01-11T06:07:05;49.67;;;26.77;;
10641;SDS011;5369;49.586;8.646;2024-01-11T06:09:31;41.97;;;21.80;;
10641;SDS011;5369;49.586;8.646;2024-01-11T06:11:57;48.90;;;24.60;;
10641;SDS011;5369;49.586;8.646;2024-01-11T06:14:24;43.47;;;23.43;;
10641;SDS011;5369;49.586;8.646;2024-01-11T06:16:50;45.33;;;23.33;;
10641;SDS011;5369;49.586;8.646;2024-01-11T06:19:16;47.33;;;26.10;;
10641;SDS011;5369;49.586;8.646;2024-01-11T06:21:43;41.93;;;23.40;;
10641;SDS011;5369;49.586;8.646;2024-01-11T06:24:09;43.73;;;23.40;;
10641;SDS011;5369;49.586;8.646;2024-01-11T06:26:35;40.67;;;22.83;;
10641;SDS011;5369;49.586;8.646;2024-01-11T06:29:01;45.13;;;26.17;;
10641;SDS011;5369;49.586;8.646;2024-01-11T06:31:27;45.27;;;25.67;;
10641;SDS011;5369;49.586;8.646;2024-01-11T06:33:53;47.67;;;25.77;;
10641;SDS011;5369;49.586;8.646;2024-01-11T06:36:19;43.83;;;27.20;;
10641;SDS011;5369;49.586;8.646;2024-01-11T06:38:46;43.57;;;25.17;;
10641;SDS011;5369;49.586;8.646;2024-01-11T06:41:12;46.67;;;24.07;;
10641;SDS011;5369;49.586;8.646;2024-01-11T06:43:38;45.27;;;23.83;;
10641;SDS011;5369;49.586;8.646;2024-01-11T06:46:04;50.40;;;24.93;;
10641;SDS011;5369;49.586;8.646;2024-01-11T06:48:31;50.10;;;25.03;;
10641;SDS011;5369;49.586;8.646;2024-01-11T06:50:57;47.67;;;25.83;;
10641;SDS011;5369;49.586;8.646;2024-01-11T06:53:23;45.23;;;24.27;;
10641;SDS011;5369;49.586;8.646;2024-01-11T06:55:49;39.77;;;22.10;;
10641;SDS011;5369;49.586;8.646;2024-01-11T06:58:17;45.93;;;24.93;;
10641;SDS011;5369;49.586;8.646;2024-01-11T07:00:43;39.37;;;21.43;;
10641;SDS011;5369;49.586;8.646;2024-01-11T07:03:09;47.93;;;24.57;;
10641;SDS011;5369;49.586;8.646;2024-01-11T07:05:36;45.65;;;26.27;;
10641;SDS011;5369;49.586;8.646;2024-01-11T07:08:02;48.35;;;29.27;;
10641;SDS011;5369;49.586;8.646;2024-01-11T07:10:29;44.93;;;23.90;;
10641;SDS011;5369;49.586;8.646;2024-01-11T07:12:55;46.67;;;25.87;;
10641;SDS011;5369;49.586;8.646;2024-01-11T07:15:21;49.50;;;26.17;;
10641;SDS011;5369;49.586;8.646;2024-01-11T07:17:49;49.17;;;25.93;;
10641;SDS011;5369;49.586;8.646;2024-01-11T07:20:15;57.03;;;28.73;;
10641;SDS011;5369;49.586;8.646;2024-01-11T07:22:42;48.20;;;24.90;;
10641;SDS011;5369;49.586;8.646;2024-01-11T07:25:08;43.63;;;25.03;;
10641;SDS011;5369;49.586;8.646;2024-01-11T07:27:34;54.30;;;26.53;;
10641;SDS011;5369;49.586;8.646;2024-01-11T07:30:01;49.00;;;25.87;;
10641;SDS011;5369;49.586;8.646;2024-01-11T07:32:28;51.43;;;26.53;;
10641;SDS011;5369;49.586;8.646;2024-01-11T07:34:54;53.10;;;27.07;;
10641;SDS011;5369;49.586;8.646;2024-01-11T07:37:20;52.07;;;25.80;;
10641;SDS011;5369;49.586;8.646;2024-01-11T07:39:46;47.77;;;25.73;;
10641;SDS011;5369;49.586;8.646;2024-01-11T07:42:13;50.57;;;26.50;;
10641;SDS011;5369;49.586;8.646;2024-01-11T07:44:41;44.87;;;23.73;;
10641;SDS011;5369;49.586;8.646;2024-01-11T07:47:07;47.50;;;25.23;;
10641;SDS011;5369;49.586;8.646;2024-01-11T07:49:33;49.10;;;26.50;;
10641;SDS011;5369;49.586;8.646;2024-01-11T07:51:59;54.03;;;28.50;;
10641;SDS011;5369;49.586;8.646;2024-01-11T07:54:25;51.33;;;26.67;;
10641;SDS011;5369;49.586;8.646;2024-01-11T07:56:51;53.83;;;26.33;;
10641;SDS011;5369;49.586;8.646;2024-01-11T07:59:18;48.03;;;25.17;;
10641;SDS011;5369;49.586;8.646;2024-01-11T08:01:44;46.27;;;24.40;;
10641;SDS011;5369;49.586;8.646;2024-01-11T08:04:10;46.93;;;23.47;;
10641;SDS011;5369;49.586;8.646;2024-01-11T08:06:36;46.53;;;25.93;;
10641;SDS011;5369;49.586;8.646;2024-01-11T08:09:03;56.30;;;27.80;;
10641;SDS011;5369;49.586;8.646;2024-01-11T08:11:30;55.13;;;28.13;;
10641;SDS011;5369;49.586;8.646;2024-01-11T08:13:57;48.20;;;25.67;;
10641;SDS011;5369;49.586;8.646;2024-01-11T08:16:24;51.23;;;27.67;;
10641;SDS011;5369;49.586;8.646;2024-01-11T08:18:50;53.43;;;25.70;;
10641;SDS011;5369;49.586;8.646;2024-01-11T08:21:16;57.20;;;26.37;;
10641;SDS011;5369;49.586;8.646;2024-01-11T08:23:42;49.90;;;25.63;;
10641;SDS011;5369;49.586;8.646;2024-01-11T08:26:11;49.83;;;24.63;;
10641;SDS011;5369;49.586;8.646;2024-01-11T08:28:38;49.93;;;24.80;;
10641;SDS011;5369;49.586;8.646;2024-01-11T08:31:04;47.70;;;26.03;;
10641;SDS011;5369;49.586;8.646;2024-01-11T08:33:30;47.10;;;25.10;;
10641;SDS011;5369;49.586;8.646;2024-01-11T08:35:56;51.80;;;27.63;;
10641;SDS011;5369;49.586;8.646;2024-01-11T08:38:23;55.13;;;27.33;;
10641;SDS011;5369;49.586;8.646;2024-01-11T08:40:49;49.87;;;26.43;;
10641;SDS011;5369;49.586;8.646;2024-01-11T08:43:16;55.67;;;29.37;;
10641;SDS011;5369;49.586;8.646;2024-01-11T08:45:42;55.00;;;26.80;;
10641;SDS011;5369;49.586;8.646;2024-01-11T08:48:14;46.37;;;25.60;;
10641;SDS011;5369;49.586;8.646;2024-01-11T08:50:41;45.60;;;25.23;;
10641;SDS011;5369;49.586;8.646;2024-01-11T08:53:07;49.43;;;26.33;;
10641;SDS011;5369;49.586;8.646;2024-01-11T08:55:33;48.87;;;27.33;;
10641;SDS011;5369;49.586;8.646;2024-01-11T08:57:59;48.60;;;26.40;;
10641;SDS011;5369;49.586;8.646;2024-01-11T09:00:26;49.77;;;25.50;;
10641;SDS011;5369;49.586;8.646;2024-01-11T09:02:52;44.13;;;24.20;;
10641;SDS011;5369;49.586;8.646;2024-01-11T09:05:18;52.00;;;26.03;;
10641;SDS011;5369;49.586;8.646;2024-01-11T09:07:44;53.83;;;26.30;;
10641;SDS011;5369;49.586;8.646;2024-01-11T09:10:10;52.03;;;27.40;;
10641;SDS011;5369;49.586;8.646;2024-01-11T09:12:37;51.83;;;28.17;;
10641;SDS011;5369;49.586;8.646;2024-01-11T09:15:03;49.50;;;26.87;;
10641;SDS011;5369;49.586;8.646;2024-01-11T09:17:30;52.63;;;28.53;;
10641;SDS011;5369;49.586;8.646;2024-01-11T09:19:56;52.10;;;28.27;;
10641;SDS011;5369;49.586;8.646;2024-01-11T09:22:22;55.20;;;29.13;;
10641;SDS011;5369;49.586;8.646;2024-01-11T09:24:48;52.10;;;26.83;;
10641;SDS011;5369;49.586;8.646;2024-01-11T09:27:15;57.00;;;28.47;;
10641;SDS011;5369;49.586;8.646;2024-01-11T09:29:44;49.90;;;26.50;;
10641;SDS011;5369;49.586;8.646;2024-01-11T09:32:12;53.43;;;27.97;;
10641;SDS011;5369;49.586;8.646;2024-01-11T09:34:38;53.07;;;27.87;;
10641;SDS011;5369;49.586;8.646;2024-01-11T09:37:05;54.23;;;29.20;;
10641;SDS011;5369;49.586;8.646;2024-01-11T09:39:31;56.40;;;29.43;;
10641;SDS011;5369;49.586;8.646;2024-01-11T09:42:15;51.13;;;28.33;;
10641;SDS011;5369;49.586;8.646;2024-01-11T09:44:42;52.97;;;27.70;;
10641;SDS011;5369;49.586;8.646;2024-01-11T09:47:08;54.20;;;29.10;;
10641;SDS011;5369;49.586;8.646;2024-01-11T09:49:36;55.50;;;30.17;;
10641;SDS011;5369;49.586;8.646;2024-01-11T09:52:06;62.73;;;31.10;;
10641;SDS011;5369;49.586;8.646;2024-01-11T09:54:35;55.67;;;29.13;;
10641;SDS011;5369;49.586;8.646;2024-01-11T09:57:01;60.93;;;31.57;;
10641;SDS011;5369;49.586;8.646;2024-01-11T09:59:28;59.77;;;32.77;;
10641;SDS011;5369;49.586;8.646;2024-01-11T10:01:54;54.90;;;29.30;;
10641;SDS011;5369;49.586;8.646;2024-01-11T10:04:20;58.97;;;31.40;;
10641;SDS011;5369;49.586;8.646;2024-01-11T10:06:47;58.33;;;31.70;;
10641;SDS011;5369;49.586;8.646;2024-01-11T10:09:16;61.33;;;31.07;;
10641;SDS011;5369;49.586;8.646;2024-01-11T10:11:42;60.90;;;30.53;;
10641;SDS011;5369;49.586;8.646;2024-01-11T10:14:08;55.10;;;28.80;;
10641;SDS011;5369;49.586;8.646;2024-01-11T10:16:36;54.20;;;29.40;;
10641;SDS011;5369;49.586;8.646;2024-01-11T10:19:03;54.13;;;30.27;;
10641;SDS011;5369;49.586;8.646;2024-01-11T10:21:29;53.00;;;27.03;;
10641;SDS011;5369;49.586;8.646;2024-01-11T10:23:55;48.60;;;26.67;;
10641;SDS011;5369;49.586;8.646;2024-01-11T10:26:24;52.23;;;28.13;;
10641;SDS011;5369;49.586;8.646;2024-01-11T10:28:50;58.17;;;30.67;;
10641;SDS011;5369;49.586;8.646;2024-01-11T10:31:16;57.27;;;31.77;;
10641;SDS011;5369;49.586;8.646;2024-01-11T10:33:43;57.13;;;30.53;;
10641;SDS011;5369;49.586;8.646;2024-01-11T10:36:11;60.23;;;31.50;;
10641;SDS011;5369;49.586;8.646;2024-01-11T10:38:38;58.60;;;30.00;;
10641;SDS011;5369;49.586;8.646;2024-01-11T10:41:05;52.20;;;29.47;;
10641;SDS011;5369;49.586;8.646;2024-01-11T10:43:32;54.93;;;29.37;;
10641;SDS011;5369;49.586;8.646;2024-01-11T10:45:59;61.43;;;32.83;;
10641;SDS011;5369;49.586;8.646;2024-01-11T10:48:30;55.03;;;31.03;;
10641;SDS011;5369;49.586;8.646;2024-01-11T10:50:58;55.13;;;29.77;;
10641;SDS011;5369;49.586;8.646;2024-01-11T10:53:42;52.33;;;28.90;;
10641;SDS011;5369;49.586;8.646;2024-01-11T10:56:10;58.57;;;30.67;;
10641;SDS011;5369;49.586;8.646;2024-01-11T10:58:37;59.37;;;29.60;;
10641;SDS011;5369;49.586;8.646;2024-01-11T11:01:05;60.83;;;32.07;;
10641;SDS011;5369;49.586;8.646;2024-01-11T11:03:31;60.50;;;33.17;;
10641;SDS011;5369;49.586;8.646;2024-01-11T11:05:59;59.10;;;31.47;;
10641;SDS011;5369;49.586;8.646;2024-01-11T11:08:25;59.73;;;31.50;;
10641;SDS011;5369;49.586;8.646;2024-01-11T11:10:56;63.53;;;32.43;;
10641;SDS011;5369;49.586;8.646;2024-01-11T11:13:23;59.20;;;31.43;;
10641;SDS011;5369;49.586;8.646;2024-01-11T11:15:50;58.40;;;32.20;;
10641;SDS011;5369;49.586;8.646;2024-01-11T11:18:16;56.37;;;31.60;;
10641;SDS011;5369;49.586;8.646;2024-01-11T11:20:43;58.30;;;31.27;;
10641;SDS011;5369;49.586;8.646;2024-01-11T11:23:11;58.00;;;32.57;;
10641;SDS011;5369;49.586;8.646;2024-01-11T11:25:40;59.17;;;30.77;;
10641;SDS011;5369;49.586;8.646;2024-01-11T11:28:08;54.20;;;29.47;;
10641;SDS011;5369;49.586;8.646;2024-01-11T11:30:36;53.93;;;28.77;;
10641;SDS011;5369;49.586;8.646;2024-01-11T11:35:45;59.53;;;32.97;;
10641;SDS011;5369;49.586;8.646;2024-01-11T11:38:18;55.70;;;30.43;;
10641;SDS011;5369;49.586;8.646;2024-01-11T11:40:46;55.17;;;30.50;;
10641;SDS011;5369;49.586;8.646;2024-01-11T11:43:15;57.87;;;32.00;;
10641;SDS011;5369;49.586;8.646;2024-01-11T11:45:41;54.57;;;31.03;;
10641;SDS011;5369;49.586;8.646;2024-01-11T11:51:06;56.33;;;30.80;;
10641;SDS011;5369;49.586;8.646;2024-01-11T11:53:35;60.00;;;31.53;;
10641;SDS011;5369;49.586;8.646;2024-01-11T11:56:02;57.40;;;32.17;;
10641;SDS011;5369;49.586;8.646;2024-01-11T11:58:29;55.87;;;30.57;;
10641;SDS011;5369;49.586;8.646;2024-01-11T12:00:55;59.27;;;31.83;;
10641;SDS011;5369;49.586;8.646;2024-01-11T12:03:30;54.73;;;30.13;;
10641;SDS011;5369;49.586;8.646;2024-01-11T12:06:03;53.80;;;29.50;;
10641;SDS011;5369;49.586;8.646;2024-01-11T12:08:30;54.57;;;30.13;;
10641;SDS011;5369;49.586;8.646;2024-01-11T12:10:56;55.00;;;30.87;;
10641;SDS011;5369;49.586;8.646;2024-01-11T12:13:23;56.40;;;31.77;;
10641;SDS011;5369;49.586;8.646;2024-01-11T12:15:50;56.07;;;30.47;;
10641;SDS011;5369;49.586;8.646;2024-01-11T12:18:16;52.93;;;28.40;;
10641;SDS011;5369;49.586;8.646;2024-01-11T12:20:42;51.13;;;30.37;;
10641;SDS011;5369;49.586;8.646;2024-01-11T12:23:08;51.50;;;30.27;;
10641;SDS011;5369;49.586;8.646;2024-01-11T12:25:35;54.00;;;29.77;;
10641;SDS011;5369;49.586;8.646;2024-01-11T12:28:01;48.43;;;28.60;;
10641;SDS011;5369;49.586;8.646;2024-01-11T12:30:28;49.73;;;29.33;;
10641;SDS011;5369;49.586;8.646;2024-01-11T12:32:58;48.70;;;27.60;;
10641;SDS011;5369;49.586;8.646;2024-01-11T12:35:26;49.10;;;29.07;;
10641;SDS011;5369;49.586;8.646;2024-01-11T12:37:56;51.97;;;31.00;;
10641;SDS011;5369;49.586;8.646;2024-01-11T12:40:24;48.97;;;28.73;;
10641;SDS011;5369;49.586;8.646;2024-01-11T12:42:52;46.20;;;28.33;;
10641;SDS011;5369;49.586;8.646;2024-01-11T12:45:19;46.03;;;27.73;;
10641;SDS011;5369;49.586;8.646;2024-01-11T12:47:45;47.70;;;29.30;;
10641;SDS011;5369;49.586;8.646;2024-01-11T12:50:11;46.87;;;28.00;;
10641;SDS011;5369;49.586;8.646;2024-01-11T12:52:38;47.43;;;27.67;;
10641;SDS011;5369;49.586;8.646;2024-01-11T12:55:04;49.60;;;28.47;;
10641;SDS011;5369;49.586;8.646;2024-01-11T12:57:31;45.90;;;28.80;;
10641;SDS011;5369;49.586;8.646;2024-01-11T13:00:19;49.53;;;29.50;;
10641;SDS011;5369;49.586;8.646;2024-01-11T13:02:44;48.47;;;30.03;;
10641;SDS011;5369;49.586;8.646;2024-01-11T13:05:12;47.03;;;29.43;;
10641;SDS011;5369;49.586;8.646;2024-01-11T13:07:40;43.83;;;26.30;;
10641;SDS011;5369;49.586;8.646;2024-01-11T13:10:06;44.60;;;26.83;;
10641;SDS011;5369;49.586;8.646;2024-01-11T13:12:32;43.87;;;27.27;;
10641;SDS011;5369;49.586;8.646;2024-01-11T13:14:58;47.87;;;29.17;;
10641;SDS011;5369;49.586;8.646;2024-01-11T13:17:24;45.80;;;29.37;;
10641;SDS011;5369;49.586;8.646;2024-01-11T13:19:52;42.80;;;27.33;;
10641;SDS011;5369;49.586;8.646;2024-01-11T13:22:18;44.30;;;26.83;;
10641;SDS011;5369;49.586;8.646;2024-01-11T13:24:45;47.50;;;27.03;;
10641;SDS011;5369;49.586;8.646;2024-01-11T13:27:11;46.30;;;27.93;;
10641;SDS011;5369;49.586;8.646;2024-01-11T13:29:37;42.53;;;25.90;;
10641;SDS011;5369;49.586;8.646;2024-01-11T13:32:03;43.57;;;27.17;;
10641;SDS011;5369;49.586;8.646;2024-01-11T13:34:29;43.73;;;25.17;;
10641;SDS011;5369;49.586;8.646;2024-01-11T13:36:56;41.70;;;25.90;;
10641;SDS011;5369;49.586;8.646;2024-01-11T13:39:24;41.27;;;25.83;;
10641;SDS011;5369;49.586;8.646;2024-01-11T13:41:51;45.80;;;27.37;;
10641;SDS011;5369;49.586;8.646;2024-01-11T13:44:17;41.43;;;25.87;;
10641;SDS011;5369;49.586;8.646;2024-01-11T13:46:43;48.00;;;27.57;;
10641;SDS011;5369;49.586;8.646;2024-01-11T13:49:12;43.73;;;26.53;;
10641;SDS011;5369;49.586;8.646;2024-01-11T13:51:38;44.80;;;26.83;;
10641;SDS011;5369;49.586;8.646;2024-01-11T13:54:04;42.00;;;25.03;;
10641;SDS011;5369;49.586;8.646;2024-01-11T13:56:31;41.83;;;24.87;;
10641;SDS011;5369;49.586;8.646;2024-01-11T13:58:57;39.10;;;23.57;;
10641;SDS011;5369;49.586;8.646;2024-01-11T14:01:23;39.30;;;23.57;;
10641;SDS011;5369;49.586;8.646;2024-01-11T14:03:49;40.60;;;24.60;;
10641;SDS011;5369;49.586;8.646;2024-01-11T14:06:16;41.40;;;23.90;;
10641;SDS011;5369;49.586;8.646;2024-01-11T14:08:42;42.63;;;25.37;;
10641;SDS011;5369;49.586;8.646;2024-01-11T14:11:08;43.83;;;26.00;;
10641;SDS011;5369;49.586;8.646;2024-01-11T14:13:34;41.93;;;25.70;;
10641;SDS011;5369;49.586;8.646;2024-01-11T14:16:00;44.80;;;26.47;;
10641;SDS011;5369;49.586;8.646;2024-01-11T14:18:26;48.57;;;28.10;;
10641;SDS011;5369;49.586;8.646;2024-01-11T14:20:52;46.87;;;25.87;;
10641;SDS011;5369;49.586;8.646;2024-01-11T14:23:19;46.10;;;26.67;;
10641;SDS011;5369;49.586;8.646;2024-01-11T14:25:45;46.77;;;26.73;;
10641;SDS011;5369;49.586;8.646;2024-01-11T14:28:12;40.90;;;24.17;;
10641;SDS011;5369;49.586;8.646;2024-01-11T14:30:38;46.07;;;25.67;;
10641;SDS011;5369;49.586;8.646;2024-01-11T14:33:04;46.97;;;26.63;;
10641;SDS011;5369;49.586;8.646;2024-01-11T14:35:30;44.27;;;25.33;;